Time;durP1;ratioP1;P1;durP2;ratioP2;P2;SDS_P1;SDS_P2;PMS_P1;PMS_P2;Temp;Humidity;BMP_temperature;BMP_pressure;BME280_temperature;BME280_humidity;BME280_pressure;Samples;Min_cycle;Max_cycle;Signal;HPM_P1;HPM_P2
2023/05/01 00:01:40;;;;;;;10.80;6.75;;;;;;;19.54;50.93;97140.94;10418269;28;20075;-92
2023/05/01 00:07:00;;;;;;;9.00;5.93;;;;;;;19.53;50.75;97137.47;10404271;28;20053;-83
2023/05/01 00:12:20;;;;;;;9.10;5.95;;;;;;;19.53;50.83;97139.38;10388905;28;20058;-83
2023/05/01 00:17:40;;;;;;;7.18;5.55;;;;;;;19.52;50.84;97133.19;10435805;28;20501;-83
2023/05/01 00:23:00;;;;;;;7.35;5.70;;;;;;;19.52;50.74;97124.25;10402116;28;20068;-83
2023/05/01 00:28:19;;;;;;;7.85;5.80;;;;;;;19.50;50.88;97119.19;10408079;28;20153;-93
2023/05/01 00:33:39;;;;;;;8.13;5.97;;;;;;;19.49;50.96;97112.19;10389206;28;20058;-93
2023/05/01 00:38:58;;;;;;;10.75;5.88;;;;;;;19.49;50.77;97106.78;10375572;28;20057;-92
2023/05/01 00:44:18;;;;;;;7.25;5.47;;;;;;;19.47;50.83;97105.50;10416000;28;20050;-92
2023/05/01 00:49:41;;;;;;;7.00;5.20;;;;;;;19.46;50.55;97099.28;10402036;28;20075;-93
2023/05/01 00:55:01;;;;;;;7.95;5.60;;;;;;;19.47;50.86;97102.81;10401918;28;20417;-92
2023/05/01 01:00:23;;;;;;;7.80;5.75;;;;;;;19.46;50.77;97093.88;10429978;28;20083;-93
2023/05/01 01:05:56;;;;;;;6.43;5.30;;;;;;;19.45;50.93;97089.63;10415938;28;20091;-93
2023/05/01 01:11:21;;;;;;;7.03;5.72;;;;;;;19.44;50.79;97093.41;10427975;28;20054;-93
2023/05/01 01:16:56;;;;;;;7.55;5.68;;;;;;;19.43;50.67;97086.44;10429006;28;20509;-93
2023/05/01 01:22:20;;;;;;;6.95;5.50;;;;;;;19.41;50.92;97083.25;10414900;28;20145;-92
2023/05/01 01:28:33;;;;;;;6.85;5.40;;;;;;;19.42;50.83;97084.81;10402302;28;20068;-93
2023/05/01 01:34:21;;;;;;;7.28;5.50;;;;;;;19.41;50.82;97080.56;10398343;28;20064;-83
2023/05/01 01:39:56;;;;;;;7.07;5.40;;;;;;;19.40;50.81;97078.94;10422550;28;20062;-83
2023/05/01 01:45:33;;;;;;;7.22;5.35;;;;;;;19.39;50.90;97073.88;10477625;28;20084;-83
2023/05/01 01:50:56;;;;;;;7.47;5.10;;;;;;;19.38;50.83;97073.06;10428213;28;20076;-83
2023/05/01 01:56:17;;;;;;;7.72;5.47;;;;;;;19.37;50.92;97068.78;10414301;28;20551;-83
2023/05/01 02:01:38;;;;;;;6.68;5.18;;;;;;;19.37;50.90;97060.69;10414093;28;20053;-93
2023/05/01 02:07:00;;;;;;;7.38;5.40;;;;;;;19.36;50.65;97061.78;10427876;28;20049;-92
2023/05/01 02:12:21;;;;;;;6.43;5.03;;;;;;;19.35;50.90;97052.09;10427822;28;20061;-93
2023/05/01 02:17:41;;;;;;;7.80;5.15;;;;;;;19.34;50.87;97053.19;10401401;28;20069;-94
2023/05/01 02:23:02;;;;;;;5.95;5.05;;;;;;;19.34;50.85;97039.69;10434712;28;20128;-92
2023/05/01 02:28:26;;;;;;;6.80;4.90;;;;;;;19.33;50.77;97038.13;10421360;28;20490;-93
2023/05/01 02:33:45;;;;;;;6.43;4.85;;;;;;;19.33;50.74;97043.53;10421509;28;20509;-93
2023/05/01 02:39:06;;;;;;;6.15;5.18;;;;;;;19.32;50.80;97031.91;10420530;28;20555;-92
2023/05/01 02:44:29;;;;;;;5.65;5.03;;;;;;;19.31;50.70;97029.53;10448737;28;20049;-93
2023/05/01 02:49:50;;;;;;;6.95;5.18;;;;;;;19.30;50.62;97025.22;10420796;28;20057;-93
2023/05/01 02:55:10;;;;;;;8.40;4.90;;;;;;;19.29;50.63;97016.34;10420596;28;20060;-93
2023/05/01 03:00:29;;;;;;;6.22;4.72;;;;;;;19.27;50.66;97013.16;10406936;28;20053;-93
2023/05/01 03:05:49;;;;;;;6.95;4.63;;;;;;;19.28;50.80;97013.94;10423601;28;20496;-93
2023/05/01 03:11:08;;;;;;;5.68;4.68;;;;;;;19.26;50.85;97008.06;10405780;28;20107;-92
2023/05/01 03:16:27;;;;;;;5.88;4.82;;;;;;;19.27;50.60;97012.38;10405524;28;20486;-92
2023/05/01 03:21:50;;;;;;;5.10;4.40;;;;;;;19.26;50.79;97005.38;10419774;28;20053;-92
2023/05/01 03:27:11;;;;;;;5.72;4.57;;;;;;;19.24;50.79;96994.09;10406074;28;20493;-93
2023/05/01 03:32:31;;;;;;;5.90;4.70;;;;;;;19.23;50.81;97000.59;10402847;28;20441;-83
2023/05/01 03:37:51;;;;;;;7.72;4.47;;;;;;;19.23;50.86;96990.59;10431421;28;20045;-83
2023/05/01 03:43:33;;;;;;;5.93;4.47;;;;;;;19.23;50.86;96995.19;10432512;28;20068;-83
2023/05/01 03:48:58;;;;;;;4.85;4.13;;;;;;;19.21;50.80;96990.13;10418056;28;20132;-83
2023/05/01 03:54:21;;;;;;;5.78;4.20;;;;;;;19.21;50.71;96992.00;10415905;28;20521;-83
2023/05/01 04:00:05;;;;;;;5.57;4.10;;;;;;;19.20;50.70;96990.44;10430556;28;20053;-83
2023/05/01 04:05:35;;;;;;;5.13;3.95;;;;;;;19.21;50.62;96986.59;10417876;28;20072;-83
2023/05/01 04:10:56;;;;;;;4.65;4.15;;;;;;;19.19;50.78;96983.44;10416193;28;20060;-83
2023/05/01 04:16:16;;;;;;;5.57;4.30;;;;;;;19.17;50.67;96984.56;10415827;28;20053;-83
2023/05/01 04:21:36;;;;;;;5.05;3.97;;;;;;;19.21;50.90;96981.22;10402474;28;20421;-83
2023/05/01 04:26:57;;;;;;;4.50;4.10;;;;;;;19.20;50.63;96985.81;10401803;28;20096;-83
2023/05/01 04:32:17;;;;;;;5.35;3.97;;;;;;;19.21;50.59;96984.72;10401893;28;20072;-83
2023/05/01 04:37:37;;;;;;;4.63;4.20;;;;;;;19.21;50.77;96986.59;10415202;28;20092;-83
2023/05/01 04:42:57;;;;;;;4.57;4.00;;;;;;;19.22;50.68;96989.00;10429664;28;20061;-83
2023/05/01 04:48:17;;;;;;;4.28;3.88;;;;;;;19.23;50.51;96990.59;10415472;28;20049;-83
2023/05/01 04:53:37;;;;;;;5.47;4.00;;;;;;;19.25;50.53;96987.56;10389877;28;20410;-83
2023/05/01 04:58:59;;;;;;;4.10;3.70;;;;;;;19.26;50.55;96989.16;10435714;28;20065;-84
2023/05/01 05:04:24;;;;;;;4.97;3.55;;;;;;;19.28;50.57;96986.94;10439767;28;20053;-84
2023/05/01 05:09:45;;;;;;;4.90;4.07;;;;;;;19.29;50.48;96988.53;10421643;28;20414;-83
2023/05/01 05:15:05;;;;;;;4.30;3.60;;;;;;;19.32;50.42;96993.28;10401703;28;20132;-84
2023/05/01 05:20:25;;;;;;;4.15;3.65;;;;;;;19.35;50.66;96993.47;10387990;28;20050;-84
2023/05/01 05:25:56;;;;;;;4.22;3.50;;;;;;;19.39;50.82;96993.63;10414282;28;20107;-83
2023/05/01 05:31:17;;;;;;;4.78;3.67;;;;;;;19.42;50.80;96998.38;10414403;28;20103;-83
2023/05/01 05:36:37;;;;;;;4.68;2.97;;;;;;;19.48;51.02;96991.72;10427727;28;20413;-84
2023/05/01 05:41:57;;;;;;;7.03;5.80;;;;;;;18.93;36.68;96992.31;10414080;28;20057;-84
2023/05/01 05:47:17;;;;;;;9.85;6.10;;;;;;;18.24;34.67;96999.03;10427626;28;20050;-84
2023/05/01 05:52:37;;;;;;;8.35;5.53;;;;;;;18.28;35.38;96994.59;10399804;28;20052;-83
2023/05/01 05:57:57;;;;;;;9.35;5.22;;;;;;;18.53;34.71;96997.72;10410390;28;20049;-84
2023/05/01 06:03:18;;;;;;;10.48;5.30;;;;;;;18.65;34.09;96995.22;10408451;28;20204;-84
2023/05/01 06:08:38;;;;;;;8.68;5.47;;;;;;;18.69;33.17;96995.41;10407614;28;20054;-84
2023/05/01 06:14:08;;;;;;;8.18;5.15;;;;;;;18.70;32.49;96992.41;10421659;28;20083;-84
2023/05/01 06:19:36;;;;;;;9.63;4.95;;;;;;;18.70;32.53;96989.69;10409330;28;20060;-84
2023/05/01 06:25:03;;;;;;;9.13;5.13;;;;;;;18.72;32.58;96982.06;10408137;28;20476;-84
2023/05/01 06:30:30;;;;;;;9.05;5.10;;;;;;;18.74;32.59;96979.84;10427568;28;20050;-84
2023/05/01 06:35:50;;;;;;;8.68;5.13;;;;;;;18.77;32.70;96981.91;10407091;28;20064;-84
2023/05/01 06:41:15;;;;;;;9.13;5.45;;;;;;;18.78;32.39;96982.72;10407962;28;20053;-84
2023/05/01 06:46:35;;;;;;;8.77;4.50;;;;;;;18.90;33.93;96971.34;10405879;28;20486;-85
2023/05/01 06:51:55;;;;;;;23.88;15.90;;;;;;;19.03;37.51;96962.28;10418964;28;20063;-84
2023/05/01 06:57:17;;;;;;;12.13;8.32;;;;;;;19.13;38.20;96962.00;10423795;28;20501;-84
2023/05/01 07:02:39;;;;;;;9.88;6.90;;;;;;;19.22;38.15;96956.59;10405448;28;20080;-84
2023/05/01 07:08:00;;;;;;;10.65;6.80;;;;;;;19.27;38.65;96951.03;10418884;28;20057;-84
2023/05/01 07:13:20;;;;;;;10.52;6.85;;;;;;;19.33;39.01;96949.75;10418558;28;20054;-84
2023/05/01 07:18:39;;;;;;;8.18;6.30;;;;;;;19.38;39.59;96948.78;10418328;28;20049;-84
2023/05/01 07:23:59;;;;;;;9.30;6.72;;;;;;;19.45;40.23;96940.22;10417923;28;20413;-84
2023/05/01 07:29:20;;;;;;;9.90;6.22;;;;;;;19.49;40.34;96947.34;10403744;28;20041;-84
2023/05/01 07:34:39;;;;;;;9.70;6.50;;;;;;;19.52;40.55;96933.22;10417637;28;20111;-85
2023/05/01 07:39:59;;;;;;;7.93;5.72;;;;;;;19.54;40.97;96935.59;10417701;28;20053;-85
2023/05/01 07:45:19;;;;;;;7.05;5.68;;;;;;;19.59;41.12;96927.31;10417126;28;20053;-84
2023/05/01 07:50:39;;;;;;;7.40;5.70;;;;;;;19.62;41.24;96924.00;10431211;28;20111;-84
2023/05/01 07:56:07;;;;;;;8.85;5.32;;;;;;;19.65;41.46;96919.84;10411111;28;20054;-85
2023/05/01 08:01:27;;;;;;;6.30;5.20;;;;;;;19.68;41.93;96911.06;10417097;28;20050;-85
2023/05/01 08:06:46;;;;;;;7.80;5.20;;;;;;;19.70;41.99;96908.88;10431102;28;20053;-85
2023/05/01 08:12:06;;;;;;;7.10;5.43;;;;;;;19.73;42.28;96906.31;10415796;28;20103;-84
2023/05/01 08:17:25;;;;;;;7.22;4.80;;;;;;;19.74;40.94;96901.72;10429339;28;20063;-84
2023/05/01 08:22:45;;;;;;;7.30;4.45;;;;;;;19.78;41.15;96902.66;10402588;28;20449;-84
2023/05/01 08:28:07;;;;;;;9.48;4.55;;;;;;;19.83;41.49;96901.69;10416555;28;20059;-85
2023/05/01 08:33:28;;;;;;;7.72;4.80;;;;;;;19.88;41.55;96896.13;10429019;28;20049;-84
2023/05/01 08:38:48;;;;;;;6.35;4.55;;;;;;;19.90;41.67;96874.94;10414782;28;20061;-84
2023/05/01 08:44:09;;;;;;;6.10;4.43;;;;;;;19.93;41.87;96861.59;10387465;28;20061;-84
2023/05/01 08:49:31;;;;;;;5.35;4.30;;;;;;;19.95;41.96;96862.06;10401795;28;20057;-84
2023/05/01 08:54:55;;;;;;;6.07;4.25;;;;;;;19.99;42.25;96866.78;10413120;28;20054;-93
2023/05/01 09:00:20;;;;;;;6.40;4.50;;;;;;;20.01;42.88;96861.84;10415915;28;20057;-92
2023/05/01 09:05:40;;;;;;;4.55;3.90;;;;;;;20.02;43.04;96858.81;10402853;28;20141;-92
2023/05/01 09:11:01;;;;;;;4.18;3.78;;;;;;;20.04;43.34;96856.59;10416060;28;20056;-93
2023/05/01 09:16:21;;;;;;;5.78;3.65;;;;;;;20.10;43.61;96849.09;10434553;28;20569;-92
2023/05/01 09:21:41;;;;;;;5.57;3.58;;;;;;;20.12;43.92;96841.44;10418598;28;20066;-84
2023/05/01 09:27:01;;;;;;;6.70;3.75;;;;;;;20.06;37.06;96837.34;10402920;28;20053;-84
2023/05/01 09:32:24;;;;;;;5.57;3.72;;;;;;;19.81;32.90;96826.31;10468200;28;20059;-84
2023/05/01 09:37:48;;;;;;;6.50;3.70;;;;;;;19.61;32.07;96824.31;10521868;28;20127;-85
2023/05/01 09:43:08;;;;;;;6.47;3.20;;;;;;;19.52;31.79;96830.53;10531464;28;20071;-92
2023/05/01 09:48:28;;;;;;;7.30;3.90;;;;;;;19.59;35.20;96816.53;10572881;28;20036;-91
2023/05/01 09:53:49;;;;;;;7.63;3.70;;;;;;;19.77;36.78;96808.38;10571837;28;20047;-92
2023/05/01 09:59:16;;;;;;;9.88;4.00;;;;;;;19.88;37.32;96807.69;10540081;28;20134;-93
2023/05/01 10:04:48;;;;;;;11.13;3.78;;;;;;;19.97;38.02;96804.91;10507139;28;20496;-92
2023/05/01 10:10:18;;;;;;;10.77;3.63;;;;;;;20.04;38.49;96799.81;10519374;28;20048;-93
2023/05/01 10:15:38;;;;;;;11.00;4.10;;;;;;;20.05;39.11;96790.59;10518871;28;20052;-93
2023/05/01 10:20:58;;;;;;;8.48;3.85;;;;;;;20.08;39.69;96772.91;10518557;28;20414;-93
2023/05/01 10:26:19;;;;;;;7.85;3.88;;;;;;;20.08;40.28;96768.28;10518214;28;20063;-93
2023/05/01 10:31:39;;;;;;;10.27;3.95;;;;;;;20.09;40.49;96761.75;10504702;28;20047;-93
2023/05/01 10:37:12;;;;;;;7.57;3.72;;;;;;;20.10;41.06;96757.91;10532298;28;20052;-92
2023/05/01 10:43:14;;;;;;;5.03;3.47;;;;;;;20.11;41.59;96746.00;10517054;28;20127;-93
2023/05/01 10:48:41;;;;;;;10.85;4.22;;;;;;;20.13;41.98;96737.53;10559494;28;20102;-94
2023/05/01 10:54:13;;;;;;;6.70;3.38;;;;;;;20.12;42.64;96735.97;10559428;28;20044;-92
2023/05/01 10:59:58;;;;;;;103.93;36.22;;;;;;;20.16;43.99;96731.47;10531048;28;20457;-93
2023/05/01 11:06:01;;;;;;;40.45;14.90;;;;;;;20.20;44.70;96720.78;10545348;28;20488;-90
2023/05/01 11:11:21;;;;;;;33.63;13.55;;;;;;;20.21;45.36;96711.53;10499601;28;20058;-89
2023/05/01 11:16:45;;;;;;;27.73;10.55;;;;;;;20.22;47.07;96705.03;10530365;28;20048;-88
2023/05/01 11:22:12;;;;;;;31.98;10.90;;;;;;;20.25;48.13;96694.34;10486687;28;20487;-88
2023/05/01 11:27:32;;;;;;;22.58;8.93;;;;;;;20.29;48.44;96686.38;10528442;28;20511;-84
2023/05/01 11:32:52;;;;;;;23.50;7.85;;;;;;;20.32;48.09;96682.97;10529014;28;20056;-85
2023/05/01 11:38:17;;;;;;;19.80;7.82;;;;;;;20.32;48.24;96672.94;10514925;28;20058;-85
2023/05/01 11:43:52;;;;;;;17.90;6.65;;;;;;;20.30;47.75;96658.94;10527830;28;20056;-85
2023/05/01 11:49:14;;;;;;;15.75;6.00;;;;;;;20.30;47.86;96652.75;10496853;28;20054;-84
2023/05/01 11:54:46;;;;;;;16.67;5.78;;;;;;;20.32;47.92;96632.34;10526503;28;20056;-86
2023/05/01 12:00:10;;;;;;;17.63;6.40;;;;;;;20.32;47.83;96640.47;10527035;28;20079;-85
2023/05/01 12:05:35;;;;;;;13.30;4.97;;;;;;;20.33;47.79;96623.13;10497223;28;20561;-85
2023/05/01 12:10:56;;;;;;;12.00;5.38;;;;;;;20.33;47.68;96615.03;10526744;28;20060;-85
2023/05/01 12:16:17;;;;;;;14.20;4.95;;;;;;;20.34;47.67;96602.28;10526627;28;20048;-85
2023/05/01 12:21:37;;;;;;;11.90;4.93;;;;;;;20.33;47.66;96593.38;10526279;28;20440;-85
2023/05/01 12:27:00;;;;;;;11.70;4.30;;;;;;;20.33;47.32;96598.78;10539841;28;20048;-85
2023/05/01 12:32:29;;;;;;;8.35;3.72;;;;;;;20.33;47.53;96585.25;10525909;28;20052;-85
2023/05/01 12:37:49;;;;;;;8.23;3.72;;;;;;;20.35;47.36;96579.53;10526725;28;20127;-87
2023/05/01 12:43:14;;;;;;;7.97;3.30;;;;;;;20.35;47.61;96583.00;10526696;28;20062;-85
2023/05/01 12:48:38;;;;;;;5.30;2.88;;;;;;;20.35;47.67;96574.09;10512418;28;20056;-90
2023/05/01 12:53:58;;;;;;;7.93;3.50;;;;;;;20.37;47.69;96546.72;10512179;28;20113;-90
2023/05/01 12:59:22;;;;;;;6.50;3.33;;;;;;;20.39;47.33;96552.59;10526620;28;20056;-91
2023/05/01 13:04:43;;;;;;;7.45;3.45;;;;;;;20.39;47.51;96542.56;10511924;28;20101;-85
2023/05/01 13:10:04;;;;;;;7.32;3.08;;;;;;;20.41;47.49;96547.63;10539895;28;20052;-84
2023/05/01 13:15:24;;;;;;;4.85;2.33;;;;;;;20.40;47.52;96537.91;10526230;28;20048;-91
2023/05/01 13:20:44;;;;;;;7.20;2.70;;;;;;;20.40;47.46;96536.00;10497489;28;20163;-92
2023/05/01 13:26:06;;;;;;;6.40;2.97;;;;;;;20.40;47.40;96527.09;10516084;28;20075;-85
2023/05/01 13:31:25;;;;;;;4.22;2.58;;;;;;;20.40;47.37;96535.22;10495561;28;20048;-85
2023/05/01 13:36:45;;;;;;;3.97;2.53;;;;;;;20.42;47.37;96535.66;10495633;28;20049;-85
2023/05/01 13:42:05;;;;;;;4.80;2.50;;;;;;;20.39;47.51;96526.31;10467501;28;20063;-85
2023/05/01 13:47:26;;;;;;;5.22;2.50;;;;;;;20.37;47.61;96519.66;10467316;28;20056;-85
2023/05/01 13:52:45;;;;;;;5.13;2.17;;;;;;;20.35;47.71;96515.38;10467430;28;20044;-86
2023/05/01 13:58:06;;;;;;;5.07;2.40;;;;;;;20.34;47.61;96518.41;10456976;28;20052;-85
2023/05/01 14:03:38;;;;;;;3.28;1.92;;;;;;;20.35;47.77;96507.25;10488875;28;20037;-92
2023/05/01 14:09:02;;;;;;;3.80;2.15;;;;;;;20.35;47.80;96499.13;10509135;28;20123;-84
2023/05/01 14:14:22;;;;;;;4.82;2.10;;;;;;;20.35;47.78;96503.78;10538999;28;20104;-86
2023/05/01 14:19:42;;;;;;;4.20;2.03;;;;;;;20.35;47.83;96493.72;10511948;28;20389;-85
2023/05/01 14:25:04;;;;;;;4.00;1.95;;;;;;;20.38;47.66;96491.47;10503815;28;20056;-85
2023/05/01 14:30:33;;;;;;;3.38;1.80;;;;;;;20.41;47.83;96490.81;10489493;28;20044;-84
2023/05/01 14:35:52;;;;;;;;;;;;;;;20.43;48.12;96483.94;10475293;28;20052;-85
2023/05/01 14:41:13;;;;;;;3.30;1.85;;;;;;;20.45;48.14;96484.38;10488182;28;19924;-85
2023/05/01 14:46:35;;;;;;;3.50;1.70;;;;;;;20.46;47.98;96472.41;10473465;28;20053;-85
2023/05/01 14:51:54;;;;;;;2.88;1.70;;;;;;;20.43;48.21;96473.09;10460432;28;20474;-85
2023/05/01 14:57:15;;;;;;;3.80;1.70;;;;;;;20.43;48.26;96466.91;10474074;28;20052;-84
2023/05/01 15:02:34;;;;;;;2.70;1.80;;;;;;;20.43;48.27;96472.31;10486932;28;20072;-85
2023/05/01 15:07:59;;;;;;;3.22;1.80;;;;;;;20.43;48.22;96467.69;10487532;28;20063;-92
2023/05/01 15:13:20;;;;;;;2.15;1.58;;;;;;;20.42;48.12;96465.31;10475605;28;20178;-93
2023/05/01 15:18:39;;;;;;;3.05;1.90;;;;;;;20.45;48.50;96467.38;10502141;28;20053;-94
2023/05/01 15:23:59;;;;;;;3.60;1.52;;;;;;;20.44;48.44;96469.25;10487149;28;20053;-92
2023/05/01 15:29:19;;;;;;;3.47;1.83;;;;;;;20.47;48.38;96462.41;10486334;28;20052;-92
2023/05/01 15:34:40;;;;;;;1.95;1.50;;;;;;;20.49;48.31;96454.75;10487608;28;20051;-92
2023/05/01 15:40:00;;;;;;;3.30;1.63;;;;;;;20.50;48.21;96461.72;10500718;28;20124;-93
2023/05/01 15:45:19;;;;;;;3.10;1.88;;;;;;;20.52;48.22;96465.69;10455978;28;20165;-93
2023/05/01 15:50:39;;;;;;;2.13;1.70;;;;;;;20.52;48.28;96454.03;10500048;28;20051;-92
2023/05/01 15:56:01;;;;;;;2.58;1.50;;;;;;;20.53;48.27;96450.22;10481013;28;20148;-90
2023/05/01 16:01:21;;;;;;;1.95;1.50;;;;;;;20.54;48.36;96457.19;10489175;28;20056;-91
2023/05/01 16:06:40;;;;;;;1.95;1.48;;;;;;;20.55;48.22;96447.97;10458370;28;20052;-84
2023/05/01 16:12:03;;;;;;;2.28;1.30;;;;;;;20.55;47.93;96454.16;10499676;28;20113;-84
2023/05/01 16:17:23;;;;;;;3.05;1.40;;;;;;;20.55;47.96;96447.97;10471069;28;20037;-83
2023/05/01 16:22:43;;;;;;;1.77;1.50;;;;;;;20.58;48.04;96457.31;10471626;28;20082;-83
2023/05/01 16:28:10;;;;;;;1.40;1.30;;;;;;;20.56;48.10;96454.94;10471980;28;20049;-83
2023/05/01 16:33:31;;;;;;;2.28;1.25;;;;;;;20.55;48.20;96456.09;10483820;28;20460;-83
2023/05/01 16:38:51;;;;;;;1.90;1.48;;;;;;;20.55;48.04;96453.38;10470096;28;20056;-83
2023/05/01 16:44:15;;;;;;;1.70;1.50;;;;;;;20.50;48.25;96453.59;10497327;28;20045;-83
2023/05/01 16:49:35;;;;;;;4.30;2.05;;;;;;;20.49;47.02;96457.44;10483031;28;20052;-83
2023/05/01 16:54:55;;;;;;;3.83;2.63;;;;;;;20.43;45.58;96458.81;10492851;28;20049;-83
2023/05/01 17:00:15;;;;;;;6.20;3.00;;;;;;;20.38;43.53;96461.72;10453685;28;20531;-83
2023/05/01 17:05:34;;;;;;;5.25;2.80;;;;;;;20.34;42.56;96465.09;10469570;28;20484;-83
2023/05/01 17:10:54;;;;;;;4.80;2.78;;;;;;;20.32;42.18;96463.84;10496366;28;20048;-84
2023/05/01 17:16:14;;;;;;;2.65;2.20;;;;;;;20.28;41.83;96466.44;10496996;28;20053;-83
2023/05/01 17:21:34;;;;;;;6.07;2.88;;;;;;;20.26;41.40;96465.19;10482555;28;20084;-83
2023/05/01 17:26:54;;;;;;;3.63;2.92;;;;;;;20.23;41.13;96461.25;10468222;28;20074;-83
2023/05/01 17:32:14;;;;;;;3.75;2.80;;;;;;;20.18;40.74;96460.69;10495779;28;20489;-84
2023/05/01 17:37:38;;;;;;;3.83;2.80;;;;;;;20.13;40.81;96461.69;10498238;28;20075;-92
2023/05/01 17:42:58;;;;;;;4.05;3.33;;;;;;;20.11;40.95;96458.53;10497273;28;20052;-91
2023/05/01 17:48:18;;;;;;;5.88;2.97;;;;;;;20.08;40.90;96459.22;10483206;28;20416;-91
2023/05/01 17:53:38;;;;;;;3.08;2.58;;;;;;;20.05;41.14;96473.38;10516589;28;20439;-91
2023/05/01 17:59:03;;;;;;;5.80;2.60;;;;;;;20.03;40.95;96475.63;10462759;28;20049;-91
2023/05/01 18:04:33;;;;;;;3.05;2.47;;;;;;;20.00;40.83;96471.69;10492736;28;20084;-92
2023/05/01 18:10:21;;;;;;;3.75;2.58;;;;;;;19.98;41.07;96481.28;10476943;28;20048;-91
2023/05/01 18:15:41;;;;;;;5.80;2.72;;;;;;;19.93;40.90;96482.25;10504963;28;20381;-91
2023/05/01 18:21:04;;;;;;;4.82;2.80;;;;;;;19.93;41.84;96479.56;10476575;28;20139;-91
2023/05/01 18:26:25;;;;;;;3.83;2.67;;;;;;;19.94;42.85;96479.22;10460900;28;20057;-92
2023/05/01 18:31:45;;;;;;;3.60;2.38;;;;;;;19.96;43.27;96478.91;10475061;28;20453;-92
2023/05/01 18:37:08;;;;;;;2.63;2.40;;;;;;;19.98;43.32;96483.97;10462737;28;20067;-90
2023/05/01 18:42:28;;;;;;;2.67;2.42;;;;;;;20.00;43.58;96489.84;10448932;28;20584;-91
2023/05/01 18:47:48;;;;;;;3.65;2.75;;;;;;;20.00;43.85;96487.13;10459189;28;20060;-92
2023/05/01 18:53:08;;;;;;;4.15;2.47;;;;;;;20.02;43.81;96496.50;10505806;28;20098;-88
2023/05/01 18:58:28;;;;;;;3.88;2.67;;;;;;;20.04;44.36;96501.56;10521925;28;20063;-91
2023/05/01 19:03:48;;;;;;;4.72;2.50;;;;;;;20.04;44.61;96502.34;10553796;28;20067;-90
2023/05/01 19:09:08;;;;;;;3.25;2.83;;;;;;;20.05;44.70;96505.84;10536231;28;20072;-92
2023/05/01 19:14:28;;;;;;;3.13;2.53;;;;;;;20.05;44.73;96501.25;10489925;28;20083;-92
2023/05/01 19:19:48;;;;;;;3.33;2.30;;;;;;;20.06;45.04;96504.72;10502932;28;20060;-92
2023/05/01 19:25:08;;;;;;;3.30;2.35;;;;;;;20.06;45.09;96505.50;10488984;28;20052;-91
2023/05/01 19:30:28;;;;;;;2.80;2.40;;;;;;;20.07;45.26;96506.28;10488680;28;20052;-91
2023/05/01 19:35:48;;;;;;;3.10;2.30;;;;;;;20.07;45.24;96506.28;10472848;28;20412;-83
2023/05/01 19:41:08;;;;;;;2.05;1.88;;;;;;;20.06;45.59;96512.84;10486501;28;20480;-83
2023/05/01 19:46:28;;;;;;;2.65;2.35;;;;;;;20.07;45.36;96514.41;10499982;28;20124;-83
2023/05/01 19:52:00;;;;;;;2.65;2.00;;;;;;;20.06;45.70;96510.91;10499744;28;20056;-83
2023/05/01 19:57:20;;;;;;;4.88;2.20;;;;;;;20.05;45.75;96512.06;10485237;28;20045;-83
2023/05/01 20:02:40;;;;;;;4.82;2.05;;;;;;;20.06;45.99;96520.94;10485554;28;20102;-83
2023/05/01 20:08:00;;;;;;;3.33;2.20;;;;;;;20.05;46.07;96538.28;10484681;28;20044;-82
2023/05/01 20:13:20;;;;;;;3.20;2.00;;;;;;;20.05;46.12;96538.28;10483869;28;20048;-83
2023/05/01 20:18:40;;;;;;;3.20;2.08;;;;;;;20.03;46.15;96541.34;10457593;28;20079;-83
2023/05/01 20:24:00;;;;;;;4.40;2.00;;;;;;;20.04;46.21;96545.63;10485169;28;20072;-92
2023/05/01 20:29:20;;;;;;;6.43;2.20;;;;;;;20.04;46.53;96536.72;10499449;28;20056;-92
2023/05/01 20:34:40;;;;;;;2.40;2.20;;;;;;;20.03;46.36;96543.22;10485189;28;20057;-92
2023/05/01 20:40:00;;;;;;;3.70;2.00;;;;;;;20.03;46.58;96541.34;10499355;28;20056;-92
2023/05/01 20:45:20;;;;;;;2.22;1.90;;;;;;;20.03;46.62;96540.53;10502117;28;20049;-92
2023/05/01 20:50:42;;;;;;;2.92;1.90;;;;;;;20.03;46.46;96545.94;10500146;28;20048;-92
2023/05/01 20:56:02;;;;;;;2.08;1.88;;;;;;;20.02;46.68;96549.78;10466025;28;20496;-93
2023/05/01 21:01:22;;;;;;;2.53;2.00;;;;;;;20.02;46.58;96547.09;10484941;28;20048;-94
2023/05/01 21:06:42;;;;;;;2.50;1.77;;;;;;;20.02;46.66;96552.50;10471258;28;20053;-93
2023/05/01 21:12:06;;;;;;;2.15;1.95;;;;;;;20.02;46.69;96571.41;10485117;28;20484;-83
2023/05/01 21:17:25;;;;;;;2.17;1.92;;;;;;;20.00;46.75;96563.63;10469347;28;20549;-83
2023/05/01 21:22:49;;;;;;;1.95;1.85;;;;;;;20.00;46.72;96579.06;10482294;28;20056;-83
2023/05/01 21:28:24;;;;;;;2.22;1.95;;;;;;;19.99;46.76;96580.19;10483359;28;20095;-83
2023/05/01 21:33:44;;;;;;;2.30;2.05;;;;;;;19.99;46.87;96588.28;10469513;28;20045;-93
2023/05/01 21:39:04;;;;;;;2.00;1.83;;;;;;;19.97;46.65;96585.91;10498530;28;20052;-93
2023/05/01 21:44:28;;;;;;;1.83;1.45;;;;;;;19.95;46.86;96588.16;10497328;28;20445;-92
2023/05/01 21:49:48;;;;;;;2.97;1.90;;;;;;;19.96;46.90;96600.56;10483908;28;20488;-92
2023/05/01 21:55:10;;;;;;;2.08;1.85;;;;;;;19.97;46.89;96595.94;10480730;28;20052;-92
2023/05/01 22:00:30;;;;;;;1.80;1.70;;;;;;;19.94;47.01;96592.78;10483108;28;20114;-93
2023/05/01 22:05:50;;;;;;;2.05;1.83;;;;;;;19.94;47.03;96600.09;10497280;28;20480;-93
2023/05/01 22:11:09;;;;;;;1.65;1.55;;;;;;;19.93;46.92;96602.03;10483288;28;20071;-83
2023/05/01 22:16:28;;;;;;;1.70;1.58;;;;;;;19.93;46.90;96609.31;10467438;28;20091;-83
2023/05/01 22:21:48;;;;;;;1.88;1.65;;;;;;;19.93;46.95;96614.72;10495091;28;20055;-83
2023/05/01 22:27:08;;;;;;;2.22;1.88;;;;;;;19.92;46.87;96621.28;10495189;28;20060;-83
2023/05/01 22:32:28;;;;;;;2.10;1.90;;;;;;;19.91;47.12;96631.28;10481280;28;20405;-83
2023/05/01 22:37:48;;;;;;;2.05;1.80;;;;;;;19.90;47.04;96632.41;10471391;28;20053;-83
2023/05/01 22:43:07;;;;;;;1.90;1.80;;;;;;;19.90;46.99;96634.34;10474527;28;20052;-83
2023/05/01 22:48:27;;;;;;;2.00;1.77;;;;;;;19.90;46.81;96637.81;10488140;28;20424;-83
2023/05/01 22:53:46;;;;;;;2.05;1.70;;;;;;;19.88;47.19;96637.38;10487930;28;20052;-83
2023/05/01 22:59:06;;;;;;;1.80;1.50;;;;;;;19.88;47.20;96642.78;10474343;28;20059;-83
2023/05/01 23:04:26;;;;;;;2.35;1.60;;;;;;;19.88;47.16;96648.19;10501572;28;20083;-83
2023/05/01 23:09:46;;;;;;;2.03;1.83;;;;;;;19.87;47.21;96657.41;10475018;28;20068;-83
2023/05/01 23:15:15;;;;;;;1.70;1.60;;;;;;;19.86;47.11;96661.22;10493391;28;20090;-83
2023/05/01 23:20:38;;;;;;;1.92;1.50;;;;;;;19.85;47.10;96662.34;10504955;28;20124;-83
2023/05/01 23:25:58;;;;;;;1.65;1.55;;;;;;;19.84;47.16;96671.59;10522590;28;20078;-83
2023/05/01 23:31:25;;;;;;;1.60;1.50;;;;;;;19.85;47.22;96675.06;10487929;28;20102;-82
2023/05/01 23:36:48;;;;;;;1.80;1.33;;;;;;;19.84;47.39;96665.41;10473936;28;20049;-83
2023/05/01 23:42:08;;;;;;;2.78;1.50;;;;;;;19.82;47.15;96660.31;10443390;28;20411;-83
2023/05/01 23:47:28;;;;;;;1.80;1.70;;;;;;;19.82;47.33;96671.13;10498751;28;20427;-83
2023/05/01 23:52:48;;;;;;;1.73;1.63;;;;;;;19.82;47.36;96665.72;10485365;28;20055;-83
2023/05/01 23:58:07;;;;;;;1.52;1.42;;;;;;;19.81;47.28;96664.13;10488687;28;20057;-93
